sensor_id;sensor_type;location;lat;lon;timestamp;temperature;humidity
78988;DHT22;74752;44.786;37.680;2024-01-30T00:00:22;-2.13;85.66
78988;DHT22;74752;44.786;37.680;2024-01-30T00:01:24;-2.14;85.64
78988;DHT22;74752;44.786;37.680;2024-01-30T00:02:31;-2.14;85.70
78988;DHT22;74752;44.786;37.680;2024-01-30T00:03:39;-2.14;85.51
78988;DHT22;74752;44.786;37.680;2024-01-30T00:04:44;-2.14;85.66
78988;DHT22;74752;44.786;37.680;2024-01-30T00:05:47;-2.14;85.67
78988;DHT22;74752;44.786;37.680;2024-01-30T00:06:51;-2.10;85.78
78988;DHT22;74752;44.786;37.680;2024-01-30T00:07:54;-2.08;85.61
78988;DHT22;74752;44.786;37.680;2024-01-30T00:09:04;-2.10;85.26
78988;DHT22;74752;44.786;37.680;2024-01-30T00:10:08;-2.09;85.41
78988;DHT22;74752;44.786;37.680;2024-01-30T00:11:11;-2.07;85.71
78988;DHT22;74752;44.786;37.680;2024-01-30T00:12:13;-2.04;85.51
78988;DHT22;74752;44.786;37.680;2024-01-30T00:13:18;-2.03;85.28
78988;DHT22;74752;44.786;37.680;2024-01-30T00:14:22;-2.05;84.87
78988;DHT22;74752;44.786;37.680;2024-01-30T00:15:33;-2.06;84.70
78988;DHT22;74752;44.786;37.680;2024-01-30T00:16:37;-2.09;84.71
78988;DHT22;74752;44.786;37.680;2024-01-30T00:17:40;-2.08;84.64
78988;DHT22;74752;44.786;37.680;2024-01-30T00:18:42;-2.08;84.54
78988;DHT22;74752;44.786;37.680;2024-01-30T00:19:44;-2.09;84.35
78988;DHT22;74752;44.786;37.680;2024-01-30T00:21:03;-2.08;84.21
78988;DHT22;74752;44.786;37.680;2024-01-30T00:22:09;-2.05;83.78
78988;DHT22;74752;44.786;37.680;2024-01-30T00:23:11;-2.06;83.48
78988;DHT22;74752;44.786;37.680;2024-01-30T00:24:13;-2.06;83.83
78988;DHT22;74752;44.786;37.680;2024-01-30T00:25:28;-2.09;83.38
78988;DHT22;74752;44.786;37.680;2024-01-30T00:26:31;-2.08;83.32
78988;DHT22;74752;44.786;37.680;2024-01-30T00:27:33;-2.08;83.79
78988;DHT22;74752;44.786;37.680;2024-01-30T00:28:46;-2.09;83.52
78988;DHT22;74752;44.786;37.680;2024-01-30T00:29:49;-2.10;83.85
78988;DHT22;74752;44.786;37.680;2024-01-30T00:30:51;-2.12;83.74
78988;DHT22;74752;44.786;37.680;2024-01-30T00:31:53;-2.12;83.93
78988;DHT22;74752;44.786;37.680;2024-01-30T00:32:55;-2.12;84.10
78988;DHT22;74752;44.786;37.680;2024-01-30T00:33:58;-2.12;83.93
78988;DHT22;74752;44.786;37.680;2024-01-30T00:35:00;-2.13;83.99
78988;DHT22;74752;44.786;37.680;2024-01-30T00:36:02;-2.12;84.23
78988;DHT22;74752;44.786;37.680;2024-01-30T00:37:06;-2.13;83.96
78988;DHT22;74752;44.786;37.680;2024-01-30T00:38:12;-2.15;84.26
78988;DHT22;74752;44.786;37.680;2024-01-30T00:39:14;-2.16;84.27
78988;DHT22;74752;44.786;37.680;2024-01-30T00:40:18;-2.17;84.23
78988;DHT22;74752;44.786;37.680;2024-01-30T00:41:21;-2.18;84.45
78988;DHT22;74752;44.786;37.680;2024-01-30T00:42:23;-2.16;84.47
78988;DHT22;74752;44.786;37.680;2024-01-30T00:43:25;-2.17;84.20
78988;DHT22;74752;44.786;37.680;2024-01-30T00:44:36;-2.16;84.13
78988;DHT22;74752;44.786;37.680;2024-01-30T00:45:48;-2.18;83.85
78988;DHT22;74752;44.786;37.680;2024-01-30T00:46:54;-2.16;83.92
78988;DHT22;74752;44.786;37.680;2024-01-30T00:47:58;-2.17;82.81
78988;DHT22;74752;44.786;37.680;2024-01-30T00:49:03;-2.18;82.45
78988;DHT22;74752;44.786;37.680;2024-01-30T00:50:08;-2.19;82.74
78988;DHT22;74752;44.786;37.680;2024-01-30T00:51:11;-2.21;82.98
78988;DHT22;74752;44.786;37.680;2024-01-30T00:52:13;-2.20;82.79
78988;DHT22;74752;44.786;37.680;2024-01-30T00:53:15;-2.22;82.63
78988;DHT22;74752;44.786;37.680;2024-01-30T00:54:26;-2.26;83.12
78988;DHT22;74752;44.786;37.680;2024-01-30T00:55:28;-2.24;83.39
78988;DHT22;74752;44.786;37.680;2024-01-30T00:56:31;-2.24;82.95
78988;DHT22;74752;44.786;37.680;2024-01-30T00:57:33;-2.26;82.92
78988;DHT22;74752;44.786;37.680;2024-01-30T00:58:35;-2.27;83.16
78988;DHT22;74752;44.786;37.680;2024-01-30T01:00:02;-2.26;83.28
78988;DHT22;74752;44.786;37.680;2024-01-30T01:01:04;-2.28;83.73
78988;DHT22;74752;44.786;37.680;2024-01-30T01:02:07;-2.27;83.88
78988;DHT22;74752;44.786;37.680;2024-01-30T01:03:10;-2.24;83.76
78988;DHT22;74752;44.786;37.680;2024-01-30T01:04:13;-2.26;84.07
78988;DHT22;74752;44.786;37.680;2024-01-30T01:05:16;-2.26;83.68
78988;DHT22;74752;44.786;37.680;2024-01-30T01:06:39;-2.29;83.65
78988;DHT22;74752;44.786;37.680;2024-01-30T01:07:43;-2.31;83.90
78988;DHT22;74752;44.786;37.680;2024-01-30T01:08:57;-2.29;83.96
78988;DHT22;74752;44.786;37.680;2024-01-30T01:10:00;-2.27;83.92
78988;DHT22;74752;44.786;37.680;2024-01-30T01:11:02;-2.28;84.07
78988;DHT22;74752;44.786;37.680;2024-01-30T01:12:05;-2.27;84.33
78988;DHT22;74752;44.786;37.680;2024-01-30T01:13:22;-2.26;83.90
78988;DHT22;74752;44.786;37.680;2024-01-30T01:14:24;-2.30;83.82
78988;DHT22;74752;44.786;37.680;2024-01-30T01:15:28;-2.32;84.01
78988;DHT22;74752;44.786;37.680;2024-01-30T01:16:30;-2.33;83.75
78988;DHT22;74752;44.786;37.680;2024-01-30T01:17:32;-2.33;83.85
78988;DHT22;74752;44.786;37.680;2024-01-30T01:18:34;-2.34;83.71
78988;DHT22;74752;44.786;37.680;2024-01-30T01:19:39;-2.34;83.75
78988;DHT22;74752;44.786;37.680;2024-01-30T01:20:42;-2.34;83.75
78988;DHT22;74752;44.786;37.680;2024-01-30T01:21:44;-2.33;83.84
78988;DHT22;74752;44.786;37.680;2024-01-30T01:23:04;-2.32;83.95
78988;DHT22;74752;44.786;37.680;2024-01-30T01:24:19;-2.33;83.87
78988;DHT22;74752;44.786;37.680;2024-01-30T01:25:22;-2.33;83.82
78988;DHT22;74752;44.786;37.680;2024-01-30T01:26:24;-2.32;84.00
78988;DHT22;74752;44.786;37.680;2024-01-30T01:27:27;-2.32;83.58
78988;DHT22;74752;44.786;37.680;2024-01-30T01:28:33;-2.33;83.65
78988;DHT22;74752;44.786;37.680;2024-01-30T01:29:39;-2.35;83.73
78988;DHT22;74752;44.786;37.680;2024-01-30T01:30:46;-2.37;83.48
78988;DHT22;74752;44.786;37.680;2024-01-30T01:31:48;-2.35;83.68
78988;DHT22;74752;44.786;37.680;2024-01-30T01:32:53;-2.34;83.75
78988;DHT22;74752;44.786;37.680;2024-01-30T01:34:03;-2.35;83.50
78988;DHT22;74752;44.786;37.680;2024-01-30T01:35:06;-2.37;83.06
78988;DHT22;74752;44.786;37.680;2024-01-30T01:36:08;-2.37;83.42
78988;DHT22;74752;44.786;37.680;2024-01-30T01:37:11;-2.38;83.23
78988;DHT22;74752;44.786;37.680;2024-01-30T01:38:13;-2.39;83.52
78988;DHT22;74752;44.786;37.680;2024-01-30T01:39:18;-2.39;83.68
78988;DHT22;74752;44.786;37.680;2024-01-30T01:40:25;-2.41;83.46
78988;DHT22;74752;44.786;37.680;2024-01-30T01:41:33;-2.42;83.44
78988;DHT22;74752;44.786;37.680;2024-01-30T01:42:35;-2.42;83.38
78988;DHT22;74752;44.786;37.680;2024-01-30T01:43:38;-2.38;83.62
78988;DHT22;74752;44.786;37.680;2024-01-30T01:44:41;-2.41;83.26
78988;DHT22;74752;44.786;37.680;2024-01-30T01:45:43;-2.42;83.39
78988;DHT22;74752;44.786;37.680;2024-01-30T01:46:55;-2.42;83.14
78988;DHT22;74752;44.786;37.680;2024-01-30T01:47:58;-2.42;83.29
78988;DHT22;74752;44.786;37.680;2024-01-30T01:49:02;-2.42;83.41
78988;DHT22;74752;44.786;37.680;2024-01-30T01:50:10;-2.43;83.73
78988;DHT22;74752;44.786;37.680;2024-01-30T01:51:13;-2.45;84.05
78988;DHT22;74752;44.786;37.680;2024-01-30T01:52:15;-2.44;84.10
78988;DHT22;74752;44.786;37.680;2024-01-30T01:53:18;-2.42;84.48
78988;DHT22;74752;44.786;37.680;2024-01-30T01:54:21;-2.45;84.31
78988;DHT22;74752;44.786;37.680;2024-01-30T01:55:23;-2.44;84.48
78988;DHT22;74752;44.786;37.680;2024-01-30T01:56:29;-2.46;84.55
78988;DHT22;74752;44.786;37.680;2024-01-30T01:57:33;-2.49;84.55
78988;DHT22;74752;44.786;37.680;2024-01-30T01:58:45;-2.50;84.70
78988;DHT22;74752;44.786;37.680;2024-01-30T01:59:48;-2.50;84.80
78988;DHT22;74752;44.786;37.680;2024-01-30T02:00:51;-2.49;84.74
78988;DHT22;74752;44.786;37.680;2024-01-30T02:01:56;-2.50;84.64
78988;DHT22;74752;44.786;37.680;2024-01-30T02:03:00;-2.54;84.81
78988;DHT22;74752;44.786;37.680;2024-01-30T02:04:04;-2.57;84.97
78988;DHT22;74752;44.786;37.680;2024-01-30T02:05:08;-2.57;85.19
78988;DHT22;74752;44.786;37.680;2024-01-30T02:06:13;-2.58;84.73
78988;DHT22;74752;44.786;37.680;2024-01-30T02:07:17;-2.60;84.96
78988;DHT22;74752;44.786;37.680;2024-01-30T02:08:25;-2.63;84.94
78988;DHT22;74752;44.786;37.680;2024-01-30T02:09:28;-2.64;84.59
78988;DHT22;74752;44.786;37.680;2024-01-30T02:10:33;-2.65;85.23
78988;DHT22;74752;44.786;37.680;2024-01-30T02:11:35;-2.64;85.08
78988;DHT22;74752;44.786;37.680;2024-01-30T02:12:38;-2.65;85.08
78988;DHT22;74752;44.786;37.680;2024-01-30T02:13:43;-2.66;85.37
78988;DHT22;74752;44.786;37.680;2024-01-30T02:14:48;-2.68;84.97
78988;DHT22;74752;44.786;37.680;2024-01-30T02:15:55;-2.67;85.01
78988;DHT22;74752;44.786;37.680;2024-01-30T02:17:03;-2.67;85.05
78988;DHT22;74752;44.786;37.680;2024-01-30T02:18:16;-2.69;85.16
78988;DHT22;74752;44.786;37.680;2024-01-30T02:19:19;-2.69;85.19
78988;DHT22;74752;44.786;37.680;2024-01-30T02:20:25;-2.68;85.16
78988;DHT22;74752;44.786;37.680;2024-01-30T02:21:36;-2.72;85.14
78988;DHT22;74752;44.786;37.680;2024-01-30T02:22:43;-2.74;85.14
78988;DHT22;74752;44.786;37.680;2024-01-30T02:23:47;-2.75;85.05
78988;DHT22;74752;44.786;37.680;2024-01-30T02:24:50;-2.76;85.13
78988;DHT22;74752;44.786;37.680;2024-01-30T02:25:53;-2.76;85.06
78988;DHT22;74752;44.786;37.680;2024-01-30T02:26:57;-2.77;84.73
78988;DHT22;74752;44.786;37.680;2024-01-30T02:28:00;-2.78;84.86
78988;DHT22;74752;44.786;37.680;2024-01-30T02:29:05;-2.78;84.89
78988;DHT22;74752;44.786;37.680;2024-01-30T02:30:08;-2.78;84.82
78988;DHT22;74752;44.786;37.680;2024-01-30T02:31:11;-2.80;84.78
78988;DHT22;74752;44.786;37.680;2024-01-30T02:32:14;-2.82;84.68
78988;DHT22;74752;44.786;37.680;2024-01-30T02:33:17;-2.80;85.14
78988;DHT22;74752;44.786;37.680;2024-01-30T02:34:20;-2.78;85.00
78988;DHT22;74752;44.786;37.680;2024-01-30T02:35:22;-2.77;84.89
78988;DHT22;74752;44.786;37.680;2024-01-30T02:36:24;-2.78;84.74
78988;DHT22;74752;44.786;37.680;2024-01-30T02:37:29;-2.82;84.64
78988;DHT22;74752;44.786;37.680;2024-01-30T02:38:33;-2.83;84.43
78988;DHT22;74752;44.786;37.680;2024-01-30T02:39:36;-2.83;84.64
78988;DHT22;74752;44.786;37.680;2024-01-30T02:40:50;-2.83;84.48
78988;DHT22;74752;44.786;37.680;2024-01-30T02:41:55;-2.84;84.13
78988;DHT22;74752;44.786;37.680;2024-01-30T02:43:03;-2.83;84.03
78988;DHT22;74752;44.786;37.680;2024-01-30T02:44:05;-2.83;84.28
78988;DHT22;74752;44.786;37.680;2024-01-30T02:45:08;-2.83;84.19
78988;DHT22;74752;44.786;37.680;2024-01-30T02:46:10;-2.84;84.37
78988;DHT22;74752;44.786;37.680;2024-01-30T02:47:16;-2.87;84.29
78988;DHT22;74752;44.786;37.680;2024-01-30T02:48:22;-2.87;84.22
78988;DHT22;74752;44.786;37.680;2024-01-30T02:49:23;-2.87;84.19
78988;DHT22;74752;44.786;37.680;2024-01-30T02:50:27;-2.89;84.18
78988;DHT22;74752;44.786;37.680;2024-01-30T02:51:33;-2.90;84.12
78988;DHT22;74752;44.786;37.680;2024-01-30T02:52:53;-2.92;84.19
78988;DHT22;74752;44.786;37.680;2024-01-30T02:53:59;-2.92;83.92
78988;DHT22;74752;44.786;37.680;2024-01-30T02:55:02;-2.93;83.97
78988;DHT22;74752;44.786;37.680;2024-01-30T02:56:04;-2.94;83.85
78988;DHT22;74752;44.786;37.680;2024-01-30T02:57:18;-2.96;83.69
78988;DHT22;74752;44.786;37.680;2024-01-30T02:58:20;-2.96;83.86
78988;DHT22;74752;44.786;37.680;2024-01-30T02:59:32;-2.98;84.07
78988;DHT22;74752;44.786;37.680;2024-01-30T03:00:38;-2.98;84.21
78988;DHT22;74752;44.786;37.680;2024-01-30T03:01:43;-2.97;83.87
78988;DHT22;74752;44.786;37.680;2024-01-30T03:02:45;-2.98;83.98
78988;DHT22;74752;44.786;37.680;2024-01-30T03:03:48;-2.98;83.98
78988;DHT22;74752;44.786;37.680;2024-01-30T03:04:53;-3.00;83.78
78988;DHT22;74752;44.786;37.680;2024-01-30T03:06:03;-3.02;83.93
78988;DHT22;74752;44.786;37.680;2024-01-30T03:07:05;-3.02;84.17
78988;DHT22;74752;44.786;37.680;2024-01-30T03:08:13;-3.05;84.05
78988;DHT22;74752;44.786;37.680;2024-01-30T03:09:17;-3.05;83.99
78988;DHT22;74752;44.786;37.680;2024-01-30T03:10:23;-3.06;84.14
78988;DHT22;74752;44.786;37.680;2024-01-30T03:11:24;-3.08;84.29
78988;DHT22;74752;44.786;37.680;2024-01-30T03:12:29;-3.10;84.41
78988;DHT22;74752;44.786;37.680;2024-01-30T03:13:32;-3.12;84.45
78988;DHT22;74752;44.786;37.680;2024-01-30T03:14:41;-3.11;84.63
78988;DHT22;74752;44.786;37.680;2024-01-30T03:15:45;-3.11;84.47
78988;DHT22;74752;44.786;37.680;2024-01-30T03:16:56;-3.16;84.29
78988;DHT22;74752;44.786;37.680;2024-01-30T03:17:58;-3.15;84.74
78988;DHT22;74752;44.786;37.680;2024-01-30T03:19:01;-3.15;84.52
78988;DHT22;74752;44.786;37.680;2024-01-30T03:20:04;-3.15;84.48
78988;DHT22;74752;44.786;37.680;2024-01-30T03:21:08;-3.17;84.35
78988;DHT22;74752;44.786;37.680;2024-01-30T03:22:16;-3.19;84.37
78988;DHT22;74752;44.786;37.680;2024-01-30T03:23:18;-3.20;83.89
78988;DHT22;74752;44.786;37.680;2024-01-30T03:24:23;-3.19;84.21
78988;DHT22;74752;44.786;37.680;2024-01-30T03:25:27;-3.19;84.36
78988;DHT22;74752;44.786;37.680;2024-01-30T03:26:30;-3.18;84.34
78988;DHT22;74752;44.786;37.680;2024-01-30T03:27:32;-3.18;84.45
78988;DHT22;74752;44.786;37.680;2024-01-30T03:28:34;-3.19;84.42
78988;DHT22;74752;44.786;37.680;2024-01-30T03:29:38;-3.21;84.39
78988;DHT22;74752;44.786;37.680;2024-01-30T03:30:43;-3.20;84.41
78988;DHT22;74752;44.786;37.680;2024-01-30T03:31:47;-3.20;84.51
78988;DHT22;74752;44.786;37.680;2024-01-30T03:32:51;-3.22;84.58
78988;DHT22;74752;44.786;37.680;2024-01-30T03:33:53;-3.21;84.45
78988;DHT22;74752;44.786;37.680;2024-01-30T03:34:55;-3.23;84.47
78988;DHT22;74752;44.786;37.680;2024-01-30T03:36:04;-3.23;84.42
78988;DHT22;74752;44.786;37.680;2024-01-30T03:37:15;-3.24;84.61
78988;DHT22;74752;44.786;37.680;2024-01-30T03:38:18;-3.22;84.56
78988;DHT22;74752;44.786;37.680;2024-01-30T03:39:23;-3.25;84.37
78988;DHT22;74752;44.786;37.680;2024-01-30T03:40:25;-3.26;84.18
78988;DHT22;74752;44.786;37.680;2024-01-30T03:41:28;-3.23;84.10
78988;DHT22;74752;44.786;37.680;2024-01-30T03:42:30;-3.25;84.08
78988;DHT22;74752;44.786;37.680;2024-01-30T03:43:33;-3.27;84.10
78988;DHT22;74752;44.786;37.680;2024-01-30T03:44:35;-3.28;84.23
78988;DHT22;74752;44.786;37.680;2024-01-30T03:45:38;-3.27;84.51
78988;DHT22;74752;44.786;37.680;2024-01-30T03:46:40;-3.26;84.83
78988;DHT22;74752;44.786;37.680;2024-01-30T03:47:43;-3.26;84.52
78988;DHT22;74752;44.786;37.680;2024-01-30T03:48:46;-3.27;84.55
78988;DHT22;74752;44.786;37.680;2024-01-30T03:49:53;-3.27;84.45
78988;DHT22;74752;44.786;37.680;2024-01-30T03:50:58;-3.27;84.66
78988;DHT22;74752;44.786;37.680;2024-01-30T03:52:03;-3.30;84.55
78988;DHT22;74752;44.786;37.680;2024-01-30T03:53:05;-3.32;84.55
78988;DHT22;74752;44.786;37.680;2024-01-30T03:54:08;-3.31;84.89
78988;DHT22;74752;44.786;37.680;2024-01-30T03:55:14;-3.30;84.59
78988;DHT22;74752;44.786;37.680;2024-01-30T03:56:20;-3.30;84.32
78988;DHT22;74752;44.786;37.680;2024-01-30T03:57:22;-3.27;84.14
78988;DHT22;74752;44.786;37.680;2024-01-30T03:58:27;-3.27;84.24
78988;DHT22;74752;44.786;37.680;2024-01-30T03:59:29;-3.25;83.90
78988;DHT22;74752;44.786;37.680;2024-01-30T04:00:32;-3.26;83.92
78988;DHT22;74752;44.786;37.680;2024-01-30T04:01:34;-3.26;84.37
78988;DHT22;74752;44.786;37.680;2024-01-30T04:02:47;-3.27;84.37
78988;DHT22;74752;44.786;37.680;2024-01-30T04:03:51;-3.26;84.18
78988;DHT22;74752;44.786;37.680;2024-01-30T04:04:57;-3.28;83.71
78988;DHT22;74752;44.786;37.680;2024-01-30T04:06:01;-3.27;83.76
78988;DHT22;74752;44.786;37.680;2024-01-30T04:07:03;-3.27;83.24
78988;DHT22;74752;44.786;37.680;2024-01-30T04:08:07;-3.28;82.88
78988;DHT22;74752;44.786;37.680;2024-01-30T04:09:10;-3.30;83.25
78988;DHT22;74752;44.786;37.680;2024-01-30T04:10:14;-3.28;83.49
78988;DHT22;74752;44.786;37.680;2024-01-30T04:11:21;-3.26;83.76
78988;DHT22;74752;44.786;37.680;2024-01-30T04:12:28;-3.26;82.56
78988;DHT22;74752;44.786;37.680;2024-01-30T04:13:30;-3.25;82.88
78988;DHT22;74752;44.786;37.680;2024-01-30T04:14:32;-3.26;82.75
78988;DHT22;74752;44.786;37.680;2024-01-30T04:15:34;-3.27;82.52
78988;DHT22;74752;44.786;37.680;2024-01-30T04:16:37;-3.30;82.26
78988;DHT22;74752;44.786;37.680;2024-01-30T04:17:40;-3.27;82.40
78988;DHT22;74752;44.786;37.680;2024-01-30T04:18:42;-3.28;82.57
78988;DHT22;74752;44.786;37.680;2024-01-30T04:19:47;-3.28;82.62
78988;DHT22;74752;44.786;37.680;2024-01-30T04:20:50;-3.27;83.15
78988;DHT22;74752;44.786;37.680;2024-01-30T04:21:52;-3.28;82.99
78988;DHT22;74752;44.786;37.680;2024-01-30T04:22:54;-3.30;82.65
78988;DHT22;74752;44.786;37.680;2024-01-30T04:23:59;-3.31;82.66
78988;DHT22;74752;44.786;37.680;2024-01-30T04:25:02;-3.28;82.61
78988;DHT22;74752;44.786;37.680;2024-01-30T04:26:07;-3.30;82.82
78988;DHT22;74752;44.786;37.680;2024-01-30T04:27:10;-3.30;82.97
78988;DHT22;74752;44.786;37.680;2024-01-30T04:28:14;-3.30;83.12
78988;DHT22;74752;44.786;37.680;2024-01-30T04:29:30;-3.28;83.07
78988;DHT22;74752;44.786;37.680;2024-01-30T04:30:33;-3.28;82.97
78988;DHT22;74752;44.786;37.680;2024-01-30T04:31:42;-3.27;82.90
78988;DHT22;74752;44.786;37.680;2024-01-30T04:32:50;-3.27;82.71
78988;DHT22;74752;44.786;37.680;2024-01-30T04:33:52;-3.26;82.86
78988;DHT22;74752;44.786;37.680;2024-01-30T04:34:54;-3.27;82.97
78988;DHT22;74752;44.786;37.680;2024-01-30T04:35:57;-3.26;83.16
78988;DHT22;74752;44.786;37.680;2024-01-30T04:37:03;-3.27;83.16
78988;DHT22;74752;44.786;37.680;2024-01-30T04:38:11;-3.26;82.88
78988;DHT22;74752;44.786;37.680;2024-01-30T04:39:13;-3.27;82.98
78988;DHT22;74752;44.786;37.680;2024-01-30T04:40:15;-3.26;82.91
78988;DHT22;74752;44.786;37.680;2024-01-30T04:41:18;-3.27;83.10
78988;DHT22;74752;44.786;37.680;2024-01-30T04:42:23;-3.26;83.21
78988;DHT22;74752;44.786;37.680;2024-01-30T04:43:27;-3.28;83.43
78988;DHT22;74752;44.786;37.680;2024-01-30T04:44:33;-3.28;83.47
78988;DHT22;74752;44.786;37.680;2024-01-30T04:45:38;-3.30;83.50
78988;DHT22;74752;44.786;37.680;2024-01-30T04:46:41;-3.28;83.25
78988;DHT22;74752;44.786;37.680;2024-01-30T04:47:49;-3.30;83.34
78988;DHT22;74752;44.786;37.680;2024-01-30T04:48:51;-3.31;83.20
78988;DHT22;74752;44.786;37.680;2024-01-30T04:49:53;-3.28;82.77
78988;DHT22;74752;44.786;37.680;2024-01-30T04:51:03;-3.26;83.17
78988;DHT22;74752;44.786;37.680;2024-01-30T04:52:10;-3.27;83.32
78988;DHT22;74752;44.786;37.680;2024-01-30T04:53:15;-3.26;83.37
78988;DHT22;74752;44.786;37.680;2024-01-30T04:54:18;-3.26;83.41
78988;DHT22;74752;44.786;37.680;2024-01-30T04:55:21;-3.28;83.96
78988;DHT22;74752;44.786;37.680;2024-01-30T04:56:22;-3.27;83.54
78988;DHT22;74752;44.786;37.680;2024-01-30T04:57:24;-3.25;83.15
78988;DHT22;74752;44.786;37.680;2024-01-30T04:58:28;-3.22;83.30
78988;DHT22;74752;44.786;37.680;2024-01-30T04:59:31;-3.21;83.02
78988;DHT22;74752;44.786;37.680;2024-01-30T05:00:43;-3.20;83.27
78988;DHT22;74752;44.786;37.680;2024-01-30T05:01:55;-3.18;83.02
78988;DHT22;74752;44.786;37.680;2024-01-30T05:03:02;-3.18;82.46
78988;DHT22;74752;44.786;37.680;2024-01-30T05:04:12;-3.18;82.52
78988;DHT22;74752;44.786;37.680;2024-01-30T05:05:14;-3.20;82.75
78988;DHT22;74752;44.786;37.680;2024-01-30T05:06:38;-3.20;82.75
78988;DHT22;74752;44.786;37.680;2024-01-30T05:07:43;-3.19;83.25
78988;DHT22;74752;44.786;37.680;2024-01-30T05:08:45;-3.22;83.66
78988;DHT22;74752;44.786;37.680;2024-01-30T05:09:51;-3.20;83.02
78988;DHT22;74752;44.786;37.680;2024-01-30T05:11:04;-3.20;83.15
78988;DHT22;74752;44.786;37.680;2024-01-30T05:12:08;-3.19;82.98
78988;DHT22;74752;44.786;37.680;2024-01-30T05:13:10;-3.17;83.09
78988;DHT22;74752;44.786;37.680;2024-01-30T05:14:15;-3.18;83.06
78988;DHT22;74752;44.786;37.680;2024-01-30T05:15:30;-3.17;83.31
78988;DHT22;74752;44.786;37.680;2024-01-30T05:16:33;-3.19;83.00
78988;DHT22;74752;44.786;37.680;2024-01-30T05:17:47;-3.13;83.30
78988;DHT22;74752;44.786;37.680;2024-01-30T05:18:49;-3.15;83.07
78988;DHT22;74752;44.786;37.680;2024-01-30T05:19:52;-3.15;82.86
78988;DHT22;74752;44.786;37.680;2024-01-30T05:20:54;-3.16;82.65
78988;DHT22;74752;44.786;37.680;2024-01-30T05:22:06;-3.18;82.88
78988;DHT22;74752;44.786;37.680;2024-01-30T05:23:09;-3.16;82.36
78988;DHT22;74752;44.786;37.680;2024-01-30T05:24:11;-3.15;82.53
78988;DHT22;74752;44.786;37.680;2024-01-30T05:25:16;-3.13;82.33
78988;DHT22;74752;44.786;37.680;2024-01-30T05:26:18;-3.12;81.93
78988;DHT22;74752;44.786;37.680;2024-01-30T05:27:24;-3.07;82.20
78988;DHT22;74752;44.786;37.680;2024-01-30T05:28:37;-3.05;82.23
78988;DHT22;74752;44.786;37.680;2024-01-30T05:29:40;-3.01;82.07
78988;DHT22;74752;44.786;37.680;2024-01-30T05:30:48;-2.94;81.30
78988;DHT22;74752;44.786;37.680;2024-01-30T05:31:51;-2.86;80.96
78988;DHT22;74752;44.786;37.680;2024-01-30T05:33:00;-2.78;80.95
78988;DHT22;74752;44.786;37.680;2024-01-30T05:34:02;-2.68;80.64
78988;DHT22;74752;44.786;37.680;2024-01-30T05:35:07;-2.63;80.51
78988;DHT22;74752;44.786;37.680;2024-01-30T05:36:12;-2.58;80.20
78988;DHT22;74752;44.786;37.680;2024-01-30T05:37:14;-2.51;79.06
78988;DHT22;74752;44.786;37.680;2024-01-30T05:38:19;-2.50;78.58
78988;DHT22;74752;44.786;37.680;2024-01-30T05:39:21;-2.54;79.50
78988;DHT22;74752;44.786;37.680;2024-01-30T05:40:24;-2.58;79.20
78988;DHT22;74752;44.786;37.680;2024-01-30T05:41:35;-2.56;78.85
78988;DHT22;74752;44.786;37.680;2024-01-30T05:42:38;-2.58;79.28
78988;DHT22;74752;44.786;37.680;2024-01-30T05:43:43;-2.61;79.60
78988;DHT22;74752;44.786;37.680;2024-01-30T05:44:45;-2.61;79.90
78988;DHT22;74752;44.786;37.680;2024-01-30T05:45:51;-2.58;79.72
78988;DHT22;74752;44.786;37.680;2024-01-30T05:46:58;-2.58;79.70
78988;DHT22;74752;44.786;37.680;2024-01-30T05:48:03;-2.58;79.78
78988;DHT22;74752;44.786;37.680;2024-01-30T05:49:27;-2.46;79.33
78988;DHT22;74752;44.786;37.680;2024-01-30T05:50:30;-2.37;78.99
78988;DHT22;74752;44.786;37.680;2024-01-30T05:51:35;-2.30;78.63
78988;DHT22;74752;44.786;37.680;2024-01-30T05:52:42;-2.24;78.37
78988;DHT22;74752;44.786;37.680;2024-01-30T05:53:50;-2.16;77.36
78988;DHT22;74752;44.786;37.680;2024-01-30T05:54:54;-2.10;77.64
78988;DHT22;74752;44.786;37.680;2024-01-30T05:55:57;-2.02;77.15
78988;DHT22;74752;44.786;37.680;2024-01-30T05:57:03;-1.95;76.42
78988;DHT22;74752;44.786;37.680;2024-01-30T05:58:07;-1.90;76.60
78988;DHT22;74752;44.786;37.680;2024-01-30T05:59:10;-1.85;76.30
78988;DHT22;74752;44.786;37.680;2024-01-30T06:00:13;-1.82;76.25
78988;DHT22;74752;44.786;37.680;2024-01-30T06:01:32;-1.82;76.39
78988;DHT22;74752;44.786;37.680;2024-01-30T06:02:40;-1.87;76.70
78988;DHT22;74752;44.786;37.680;2024-01-30T06:03:45;-1.88;76.53
78988;DHT22;74752;44.786;37.680;2024-01-30T06:04:49;-1.89;76.34
78988;DHT22;74752;44.786;37.680;2024-01-30T06:05:56;-1.80;76.19
78988;DHT22;74752;44.786;37.680;2024-01-30T06:07:06;-1.73;76.18
78988;DHT22;74752;44.786;37.680;2024-01-30T06:08:11;-1.70;76.28
78988;DHT22;74752;44.786;37.680;2024-01-30T06:09:15;-1.65;74.89
78988;DHT22;74752;44.786;37.680;2024-01-30T06:10:18;-1.62;75.31
78988;DHT22;74752;44.786;37.680;2024-01-30T06:11:22;-1.65;75.64
78988;DHT22;74752;44.786;37.680;2024-01-30T06:12:28;-1.63;76.12
78988;DHT22;74752;44.786;37.680;2024-01-30T06:13:30;-1.57;75.51
78988;DHT22;74752;44.786;37.680;2024-01-30T06:14:40;-1.50;74.93
78988;DHT22;74752;44.786;37.680;2024-01-30T06:15:43;-1.44;74.62
78988;DHT22;74752;44.786;37.680;2024-01-30T06:16:50;-1.39;74.44
78988;DHT22;74752;44.786;37.680;2024-01-30T06:18:03;-1.35;74.05
78988;DHT22;74752;44.786;37.680;2024-01-30T06:19:08;-1.32;74.04
78988;DHT22;74752;44.786;37.680;2024-01-30T06:20:11;-1.29;73.51
78988;DHT22;74752;44.786;37.680;2024-01-30T06:21:15;-1.31;73.86
78988;DHT22;74752;44.786;37.680;2024-01-30T06:22:18;-1.27;73.29
78988;DHT22;74752;44.786;37.680;2024-01-30T06:23:20;-1.23;72.93
78988;DHT22;74752;44.786;37.680;2024-01-30T06:24:22;-1.20;73.35
78988;DHT22;74752;44.786;37.680;2024-01-30T06:25:34;-1.13;72.18
78988;DHT22;74752;44.786;37.680;2024-01-30T06:26:44;-1.14;72.64
78988;DHT22;74752;44.786;37.680;2024-01-30T06:27:48;-1.13;73.25
78988;DHT22;74752;44.786;37.680;2024-01-30T06:28:55;-0.99;72.75
78988;DHT22;74752;44.786;37.680;2024-01-30T06:29:58;-0.95;72.48
78988;DHT22;74752;44.786;37.680;2024-01-30T06:31:01;-0.93;70.60
78988;DHT22;74752;44.786;37.680;2024-01-30T06:32:03;-0.91;71.43
78988;DHT22;74752;44.786;37.680;2024-01-30T06:33:23;-0.87;71.22
78988;DHT22;74752;44.786;37.680;2024-01-30T06:34:27;-0.88;70.25
78988;DHT22;74752;44.786;37.680;2024-01-30T06:35:30;-0.90;69.83
78988;DHT22;74752;44.786;37.680;2024-01-30T06:36:43;-0.93;70.09
78988;DHT22;74752;44.786;37.680;2024-01-30T06:37:47;-0.91;69.63
78988;DHT22;74752;44.786;37.680;2024-01-30T06:38:50;-0.87;71.77
78988;DHT22;74752;44.786;37.680;2024-01-30T06:39:52;-0.88;71.91
78988;DHT22;74752;44.786;37.680;2024-01-30T06:41:00;-0.90;71.55
78988;DHT22;74752;44.786;37.680;2024-01-30T06:42:05;-0.85;71.16
78988;DHT22;74752;44.786;37.680;2024-01-30T06:43:14;-0.85;70.53
78988;DHT22;74752;44.786;37.680;2024-01-30T06:44:18;-0.89;71.06